createdAt,value
2018-02-09T00:00:11.281Z,31.17
2018-02-09T00:02:39.160Z,31.87
2018-02-09T00:05:06.692Z,31.17
2018-02-09T00:07:34.249Z,30.80
2018-02-09T00:10:01.823Z,31.93
2018-02-09T00:12:29.343Z,31.53
2018-02-09T00:14:56.880Z,31.47
2018-02-09T00:17:24.538Z,28.70
2018-02-09T00:19:52.391Z,31.13
2018-02-09T00:22:19.959Z,30.87
2018-02-09T00:24:47.508Z,31.50
2018-02-09T00:27:15.094Z,32.13
2018-02-09T00:29:43.043Z,30.30
2018-02-09T00:32:10.569Z,31.80
2018-02-09T00:34:38.372Z,30.80
2018-02-09T00:37:05.921Z,31.47
2018-02-09T00:39:33.482Z,29.37
2018-02-09T00:42:01.062Z,31.97
2018-02-09T00:44:28.920Z,29.30
2018-02-09T00:46:56.500Z,31.90
2018-02-09T00:49:24.032Z,32.47
2018-02-09T00:51:51.573Z,32.90
2018-02-09T00:54:19.150Z,29.20
2018-02-09T00:56:46.766Z,30.63
2018-02-09T00:59:14.314Z,29.50
2018-02-09T01:01:42.260Z,31.53
2018-02-09T01:04:09.778Z,29.93
2018-02-09T01:06:37.338Z,31.70
2018-02-09T01:09:04.902Z,30.50
2018-02-09T01:11:32.455Z,29.60
2018-02-09T01:14:00.266Z,29.60
2018-02-09T01:16:27.844Z,30.40
2018-02-09T01:18:55.410Z,29.37
2018-02-09T01:21:22.940Z,31.60
2018-02-09T01:23:50.517Z,28.87
2018-02-09T01:26:18.079Z,30.50
2018-02-09T01:28:45.635Z,31.03
2018-02-09T01:31:13.192Z,31.20
2018-02-09T01:33:40.739Z,29.80
2018-02-09T01:36:08.350Z,29.40
2018-02-09T01:38:35.901Z,30.90
2018-02-09T01:41:03.498Z,31.40
2018-02-09T01:43:31.034Z,31.33
2018-02-09T01:45:58.602Z,31.60
2018-02-09T01:48:26.176Z,31.00
2018-02-09T01:50:53.774Z,30.03
2018-02-09T01:53:21.302Z,32.27
2018-02-09T01:55:48.862Z,32.70
2018-02-09T01:58:16.438Z,32.83
2018-02-09T02:00:43.978Z,33.30
2018-02-09T02:03:11.808Z,31.70
2018-02-09T02:05:39.369Z,33.53
2018-02-09T02:08:06.894Z,34.43
2018-02-09T02:10:34.453Z,33.20
2018-02-09T02:13:02.041Z,33.83
2018-02-09T02:15:29.598Z,34.00
2018-02-09T02:17:57.165Z,32.50
2018-02-09T02:20:24.705Z,33.17
2018-02-09T02:22:52.239Z,33.27
2018-02-09T02:25:19.845Z,32.43
2018-02-09T02:27:47.394Z,32.63
2018-02-09T02:30:15.267Z,34.33
2018-02-09T02:32:42.849Z,33.17
2018-02-09T02:35:10.417Z,32.93
2018-02-09T02:37:37.975Z,31.90
2018-02-09T02:40:05.541Z,34.73
2018-02-09T02:42:35.383Z,34.07
2018-02-09T02:45:02.922Z,33.10
2018-02-09T02:47:30.462Z,34.10
2018-02-09T02:49:58.036Z,33.37
2018-02-09T02:52:25.558Z,36.17
2018-02-09T02:54:53.092Z,33.43
2018-02-09T02:57:20.638Z,32.20
2018-02-09T02:59:48.442Z,35.03
2018-02-09T03:02:16.091Z,33.73
2018-02-09T03:04:43.873Z,35.17
2018-02-09T03:07:11.429Z,33.50
2018-02-09T03:09:38.977Z,34.93
2018-02-09T03:12:06.526Z,32.90
2018-02-09T03:14:34.421Z,35.37
2018-02-09T03:17:01.970Z,34.23
2018-02-09T03:19:29.510Z,34.37
2018-02-09T03:21:57.313Z,32.20
2018-02-09T03:24:24.848Z,33.90
2018-02-09T03:26:52.458Z,32.47
2018-02-09T03:29:20.306Z,33.10
2018-02-09T03:31:48.167Z,34.30
2018-02-09T03:34:15.962Z,34.10
2018-02-09T03:36:43.523Z,35.67
2018-02-09T03:39:11.116Z,34.40
2018-02-09T03:41:38.684Z,34.57
2018-02-09T03:44:06.237Z,34.23
2018-02-09T03:46:33.804Z,34.57
2018-02-09T03:49:02.846Z,35.00
2018-02-09T03:51:30.445Z,34.00
2018-02-09T03:53:58.008Z,34.60
2018-02-09T03:56:25.534Z,34.00
2018-02-09T03:58:53.395Z,36.03
2018-02-09T04:01:20.988Z,34.10
2018-02-09T04:03:48.565Z,35.37
2018-02-09T04:06:16.124Z,35.40
2018-02-09T04:08:43.701Z,35.17
2018-02-09T04:11:11.231Z,34.80
2018-02-09T04:13:38.862Z,35.53
2018-02-09T04:16:06.440Z,35.40
2018-02-09T04:18:34.202Z,36.10
2018-02-09T04:21:01.781Z,36.97
2018-02-09T04:23:29.330Z,35.90
2018-02-09T04:25:56.890Z,38.50
2018-02-09T04:28:24.443Z,36.40
2018-02-09T04:30:52.306Z,35.83
2018-02-09T04:33:19.869Z,37.20
2018-02-09T04:35:47.431Z,37.80
2018-02-09T04:38:14.969Z,36.03
2018-02-09T04:40:42.860Z,37.20
2018-02-09T04:43:10.386Z,36.60
2018-02-09T04:45:37.915Z,35.87
2018-02-09T04:48:05.502Z,37.43
2018-02-09T04:50:33.054Z,35.80
2018-02-09T04:53:00.651Z,37.70
2018-02-09T04:55:28.221Z,37.17
2018-02-09T04:57:55.795Z,38.30
2018-02-09T05:00:23.331Z,39.57
2018-02-09T05:02:50.930Z,38.77
2018-02-09T05:05:18.490Z,38.83
2018-02-09T05:07:46.076Z,38.47
2018-02-09T05:10:13.671Z,38.80
2018-02-09T05:12:41.227Z,40.47
2018-02-09T05:15:08.784Z,40.60
2018-02-09T05:17:36.346Z,40.77
2018-02-09T05:20:03.905Z,40.27
2018-02-09T05:22:31.514Z,41.67
2018-02-09T05:24:59.257Z,40.63
2018-02-09T05:27:26.808Z,40.93
2018-02-09T05:29:54.350Z,39.17
2018-02-09T05:32:21.913Z,41.00
2018-02-09T05:34:49.509Z,40.33
2018-02-09T05:37:17.095Z,40.23
2018-02-09T05:39:44.649Z,38.87
2018-02-09T05:42:12.579Z,40.30
2018-02-09T05:44:40.166Z,39.83
2018-02-09T05:47:07.751Z,40.80
2018-02-09T05:49:35.331Z,41.10
2018-02-09T05:52:02.926Z,42.77
2018-02-09T05:54:30.505Z,41.73
2018-02-09T05:56:58.091Z,43.27
2018-02-09T05:59:25.650Z,42.13
2018-02-09T06:01:53.171Z,42.40
2018-02-09T06:04:20.733Z,42.00
2018-02-09T06:06:48.278Z,43.67
2018-02-09T06:09:15.876Z,40.20
2018-02-09T06:11:43.478Z,39.90
2018-02-09T06:14:11.029Z,41.90
2018-02-09T06:16:38.613Z,43.60
2018-02-09T06:19:06.180Z,44.60
2018-02-09T06:21:34.066Z,46.07
2018-02-09T06:24:01.626Z,45.17
2018-02-09T06:26:29.487Z,45.90
2018-02-09T06:28:57.052Z,45.90
2018-02-09T06:31:24.597Z,45.63
2018-02-09T06:33:52.170Z,45.30
2018-02-09T06:36:19.709Z,45.43
2018-02-09T06:38:47.270Z,42.63
2018-02-09T06:41:14.817Z,44.60
2018-02-09T06:43:42.836Z,42.70
2018-02-09T06:46:10.710Z,43.20
2018-02-09T06:48:38.310Z,43.87
2018-02-09T06:51:05.910Z,45.50
2018-02-09T06:53:33.437Z,45.93
2018-02-09T06:56:01.002Z,44.07
2018-02-09T06:58:28.542Z,46.40
2018-02-09T07:00:56.107Z,47.07
2018-02-09T07:03:23.642Z,45.23
2018-02-09T07:05:51.251Z,44.20
2018-02-09T07:08:18.833Z,46.10
2018-02-09T07:10:46.772Z,43.20
2018-02-09T07:13:14.473Z,43.23
2018-02-09T07:15:42.225Z,45.77
2018-02-09T07:18:09.769Z,45.80
2018-02-09T07:20:37.781Z,45.57
2018-02-09T07:23:05.479Z,45.93
2018-02-09T07:25:33.112Z,45.00
2018-02-09T07:28:00.689Z,46.27
2018-02-09T07:30:28.255Z,43.57
2018-02-09T07:32:55.811Z,44.70
2018-02-09T07:35:23.446Z,44.77
2018-02-09T07:37:51.037Z,45.00
2018-02-09T07:40:18.983Z,44.37
2018-02-09T07:42:46.655Z,45.73
2018-02-09T07:45:14.232Z,45.80
2018-02-09T07:47:41.865Z,43.03
2018-02-09T07:50:09.453Z,43.87
2018-02-09T07:52:36.996Z,44.23
2018-02-09T07:55:04.577Z,41.63
2018-02-09T07:57:32.711Z,46.00
2018-02-09T08:00:00.547Z,44.63
2018-02-09T08:02:28.146Z,42.87
2018-02-09T08:04:55.699Z,41.97
2018-02-09T08:07:23.301Z,44.77
2018-02-09T08:09:50.910Z,42.50
2018-02-09T08:12:18.542Z,43.70
2018-02-09T08:14:46.134Z,44.43
2018-02-09T08:17:13.694Z,43.80
2018-02-09T08:19:41.279Z,41.83
2018-02-09T08:22:08.904Z,44.03
2018-02-09T08:24:36.704Z,44.20
2018-02-09T08:27:04.343Z,42.57
2018-02-09T08:29:31.967Z,39.50
2018-02-09T08:31:59.491Z,41.27
2018-02-09T08:34:27.099Z,40.40
2018-02-09T08:36:54.699Z,39.43
2018-02-09T08:39:22.262Z,40.10
2018-02-09T08:41:49.874Z,40.97
2018-02-09T08:44:17.410Z,41.80
2018-02-09T08:46:45.230Z,41.23
2018-02-09T08:49:13.292Z,41.20
2018-02-09T08:51:40.970Z,42.50
2018-02-09T08:54:08.593Z,42.33
2018-02-09T08:56:36.426Z,42.63
2018-02-09T08:59:03.976Z,39.93
2018-02-09T09:01:31.643Z,37.37
2018-02-09T09:03:59.231Z,40.27
2018-02-09T09:06:26.868Z,38.20
2018-02-09T09:08:54.621Z,40.37
2018-02-09T09:11:22.253Z,43.37
2018-02-09T09:13:49.815Z,43.47
2018-02-09T09:16:17.373Z,43.67
2018-02-09T09:18:45.104Z,45.40
2018-02-09T09:21:12.752Z,44.87
2018-02-09T09:23:40.566Z,46.17
2018-02-09T09:26:08.191Z,45.13
2018-02-09T09:28:35.798Z,44.10
2018-02-09T09:31:03.366Z,46.87
2018-02-09T09:33:30.928Z,45.13
2018-02-09T09:35:58.534Z,44.77
2018-02-09T09:38:26.121Z,46.07
2018-02-09T09:40:53.752Z,43.83
2018-02-09T09:43:21.359Z,44.70
2018-02-09T09:45:48.976Z,44.37
2018-02-09T09:48:16.506Z,47.60
2018-02-09T09:50:44.055Z,44.63
2018-02-09T09:53:11.815Z,44.80
2018-02-09T09:55:39.342Z,45.90
2018-02-09T09:58:06.921Z,45.63
2018-02-09T10:00:34.487Z,47.60
2018-02-09T10:03:02.329Z,44.87
2018-02-09T10:05:30.173Z,47.37
2018-02-09T10:07:57.740Z,45.77
2018-02-09T10:10:25.316Z,43.50
2018-02-09T10:12:52.904Z,43.80
2018-02-09T10:15:20.447Z,43.77
2018-02-09T10:17:47.989Z,45.53
2018-02-09T10:20:15.627Z,45.37
2018-02-09T10:22:43.210Z,44.47
2018-02-09T10:25:10.807Z,46.27
2018-02-09T10:27:38.407Z,44.00
2018-02-09T10:30:05.984Z,40.67
2018-02-09T10:32:33.654Z,40.80
2018-02-09T10:35:02.266Z,42.57
2018-02-09T10:37:29.864Z,43.90
2018-02-09T10:39:57.450Z,43.13
2018-02-09T10:42:25.046Z,37.73
2018-02-09T10:44:52.691Z,36.20
2018-02-09T10:47:20.236Z,40.07
2018-02-09T10:49:48.167Z,47.87
2018-02-09T10:52:17.863Z,41.70
2018-02-09T10:54:45.918Z,40.23
2018-02-09T10:57:13.572Z,39.30
2018-02-09T10:59:41.125Z,41.97
2018-02-09T11:02:08.713Z,42.83
2018-02-09T11:04:36.251Z,42.20
2018-02-09T11:07:03.800Z,38.53
2018-02-09T11:09:31.347Z,39.47
2018-02-09T11:15:02.922Z,37.63
2018-02-09T11:17:30.516Z,35.93
2018-02-09T11:19:58.078Z,33.40
2018-02-09T11:22:25.642Z,35.00
2018-02-09T11:24:53.198Z,36.23
2018-02-09T11:27:21.041Z,33.00
2018-02-09T11:29:48.688Z,34.57
2018-02-09T11:32:16.268Z,37.30
2018-02-09T11:34:43.806Z,36.90
2018-02-09T11:37:11.383Z,36.60
2018-02-09T11:39:38.971Z,34.37
2018-02-09T11:42:06.546Z,35.17
2018-02-09T11:44:34.086Z,33.83
2018-02-09T11:47:01.718Z,34.03
2018-02-09T11:49:29.290Z,34.13
2018-02-09T11:51:56.881Z,36.20
2018-02-09T11:54:24.441Z,38.63
2018-02-09T11:56:51.981Z,35.40
2018-02-09T11:59:19.554Z,35.83
2018-02-09T12:01:47.100Z,34.00
2018-02-09T12:04:14.662Z,34.77
2018-02-09T12:06:42.225Z,34.60
2018-02-09T12:09:09.789Z,36.00
2018-02-09T12:11:37.346Z,36.43
2018-02-09T12:14:04.922Z,34.23
2018-02-09T12:16:32.492Z,33.90
2018-02-09T12:19:00.065Z,34.93
2018-02-09T12:21:27.892Z,36.23
2018-02-09T12:23:55.488Z,36.97
2018-02-09T12:26:23.023Z,38.10
2018-02-09T12:28:50.596Z,37.07
2018-02-09T12:31:18.461Z,37.17
2018-02-09T12:33:46.146Z,38.20
2018-02-09T12:36:13.685Z,37.10
2018-02-09T12:38:41.258Z,36.43
2018-02-09T12:41:09.101Z,38.43
2018-02-09T12:43:36.650Z,38.83
2018-02-09T12:46:04.428Z,37.63
2018-02-09T12:48:32.001Z,36.50
2018-02-09T12:50:59.532Z,38.10
2018-02-09T12:53:27.082Z,37.80
2018-02-09T12:55:54.675Z,38.10
2018-02-09T12:58:22.218Z,39.30
2018-02-09T13:00:50.282Z,38.17
2018-02-09T13:03:17.913Z,36.10
2018-02-09T13:05:45.670Z,38.93
2018-02-09T13:08:13.614Z,37.77
2018-02-09T13:10:41.263Z,45.53
2018-02-09T13:13:11.667Z,40.17
2018-02-09T13:15:39.200Z,39.70
2018-02-09T13:18:07.018Z,39.37
2018-02-09T13:20:34.544Z,36.27
2018-02-09T13:23:14.226Z,37.03
2018-02-09T13:25:41.743Z,38.80
2018-02-09T13:28:09.302Z,38.30
2018-02-09T13:30:37.111Z,37.97
2018-02-09T13:33:16.471Z,38.07
2018-02-09T13:35:44.047Z,36.47
2018-02-09T13:38:11.586Z,38.30
2018-02-09T13:40:39.154Z,36.43
2018-02-09T13:43:06.764Z,38.10
2018-02-09T13:45:34.319Z,37.80
2018-02-09T13:48:01.850Z,39.80
2018-02-09T13:50:29.404Z,36.50
2018-02-09T13:52:56.928Z,37.00
2018-02-09T13:55:24.469Z,39.10
2018-02-09T13:57:51.998Z,37.60
2018-02-09T14:00:19.930Z,37.30
2018-02-09T14:02:47.475Z,40.10
2018-02-09T14:05:15.023Z,39.50
2018-02-09T14:07:42.904Z,39.10
2018-02-09T14:10:10.440Z,39.17
2018-02-09T14:12:37.983Z,36.23
2018-02-09T14:15:05.516Z,37.40
2018-02-09T14:17:33.037Z,36.57
2018-02-09T14:20:00.608Z,34.40
2018-02-09T14:22:28.142Z,36.47
2018-02-09T14:24:55.678Z,36.93
2018-02-09T14:27:23.970Z,35.50
2018-02-09T14:29:51.540Z,35.47
2018-02-09T14:32:19.095Z,37.10
2018-02-09T14:34:46.642Z,37.70
2018-02-09T14:37:14.213Z,36.73
2018-02-09T14:39:41.790Z,37.00
2018-02-09T14:42:09.318Z,36.00
2018-02-09T14:44:36.867Z,34.90
2018-02-09T14:47:04.453Z,36.87
2018-02-09T14:49:32.371Z,35.00
2018-02-09T14:51:59.900Z,37.53
2018-02-09T14:54:27.787Z,37.07
2018-02-09T14:56:55.334Z,37.23
2018-02-09T14:59:23.117Z,36.00
2018-02-09T15:01:50.706Z,37.10
2018-02-09T15:04:18.544Z,38.63
2018-02-09T15:06:46.135Z,38.23
2018-02-09T15:09:13.755Z,37.63
2018-02-09T15:11:41.295Z,37.83
2018-02-09T15:14:08.824Z,38.90
2018-02-09T15:16:36.654Z,37.27
2018-02-09T15:19:04.198Z,38.47
2018-02-09T15:21:31.757Z,37.87
2018-02-09T15:23:59.298Z,39.20
2018-02-09T15:26:26.862Z,38.60
2018-02-09T15:28:54.471Z,41.30
2018-02-09T15:31:22.333Z,40.20
2018-02-09T15:33:49.923Z,39.87
2018-02-09T15:36:17.513Z,40.90
2018-02-09T15:38:45.087Z,39.60
2018-02-09T15:41:12.712Z,40.43
2018-02-09T15:43:40.249Z,40.33
2018-02-09T15:46:07.793Z,43.03
2018-02-09T15:48:35.403Z,39.73
2018-02-09T15:51:02.957Z,39.07
2018-02-09T15:53:30.508Z,44.70
2018-02-09T15:55:58.059Z,43.90
2018-02-09T15:58:25.606Z,41.30
2018-02-09T16:00:53.469Z,40.47
2018-02-09T16:03:21.058Z,43.97
2018-02-09T16:05:48.892Z,43.03
2018-02-09T16:08:16.446Z,42.80
2018-02-09T16:10:43.975Z,41.97
2018-02-09T16:13:11.520Z,42.57
2018-02-09T16:15:39.076Z,50.27
2018-02-09T16:18:06.674Z,49.10
2018-02-09T16:20:34.242Z,44.70
2018-02-09T16:23:01.766Z,45.50
2018-02-09T16:25:29.300Z,42.50
2018-02-09T16:27:56.859Z,42.30
2018-02-09T16:30:24.715Z,43.73
2018-02-09T16:32:52.303Z,44.10
2018-02-09T16:35:20.134Z,44.23
2018-02-09T16:37:47.905Z,44.53
2018-02-09T16:40:15.492Z,44.50
2018-02-09T16:42:43.330Z,44.50
2018-02-09T16:45:10.881Z,44.80
2018-02-09T16:47:38.477Z,44.97
2018-02-09T16:50:06.025Z,44.80
2018-02-09T16:52:33.587Z,44.23
2018-02-09T16:55:01.161Z,43.10
2018-02-09T16:57:28.700Z,44.63
2018-02-09T16:59:56.538Z,43.50
2018-02-09T17:02:24.366Z,45.00
2018-02-09T17:04:52.069Z,44.47
2018-02-09T17:07:19.964Z,47.53
2018-02-09T17:09:48.373Z,45.00
2018-02-09T17:12:16.353Z,44.57
2018-02-09T17:14:43.910Z,44.83
2018-02-09T17:17:12.201Z,44.53
2018-02-09T17:19:40.598Z,45.97
2018-02-09T17:22:08.195Z,45.87
2018-02-09T17:24:35.770Z,47.70
2018-02-09T17:27:03.358Z,47.47
2018-02-09T17:29:30.878Z,44.37
2018-02-09T17:31:58.440Z,54.37
2018-02-09T17:34:25.983Z,54.77
2018-02-09T17:36:53.571Z,46.20
2018-02-09T17:39:21.147Z,47.33
2018-02-09T17:41:48.809Z,44.97
2018-02-09T17:44:16.344Z,44.47
2018-02-09T17:46:43.884Z,44.10
2018-02-09T17:49:11.557Z,47.73
2018-02-09T17:51:39.126Z,45.50
2018-02-09T17:54:06.666Z,45.90
2018-02-09T17:56:34.224Z,45.80
2018-02-09T17:59:01.786Z,45.93
2018-02-09T18:01:29.323Z,45.20
2018-02-09T18:03:56.884Z,44.23
2018-02-09T18:06:24.415Z,44.87
2018-02-09T18:08:52.054Z,46.70
2018-02-09T18:11:19.588Z,46.93
2018-02-09T18:13:47.125Z,43.50
2018-02-09T18:16:14.727Z,46.40
2018-02-09T18:18:42.249Z,44.47
2018-02-09T18:21:10.064Z,46.93
2018-02-09T18:23:37.636Z,43.60
2018-02-09T18:26:05.176Z,42.37
2018-02-09T18:28:32.759Z,47.57
2018-02-09T18:31:00.305Z,46.20
2018-02-09T18:33:27.850Z,43.97
2018-02-09T18:35:55.442Z,43.27
2018-02-09T18:38:23.013Z,44.80
2018-02-09T18:40:50.558Z,43.10
2018-02-09T18:43:18.173Z,45.63
2018-02-09T18:45:45.702Z,47.97
2018-02-09T18:48:13.363Z,48.10
2018-02-09T18:50:40.920Z,47.63
2018-02-09T18:53:08.868Z,46.83
2018-02-09T18:55:36.462Z,46.33
2018-02-09T18:58:04.006Z,45.97
2018-02-09T19:00:31.525Z,46.80
2018-02-09T19:02:59.413Z,45.47
2018-02-09T19:05:26.987Z,47.07
2018-02-09T19:07:54.554Z,44.50
2018-02-09T19:10:22.399Z,46.23
2018-02-09T19:12:50.267Z,45.43
2018-02-09T19:15:17.806Z,48.23
2018-02-09T19:17:45.433Z,46.43
2018-02-09T19:20:13.003Z,45.47
2018-02-09T19:22:40.823Z,45.20
2018-02-09T19:25:08.362Z,46.23
2018-02-09T19:27:36.244Z,46.30
2018-02-09T19:30:03.821Z,47.80
2018-02-09T19:32:31.380Z,45.60
2018-02-09T19:34:58.930Z,55.53
2018-02-09T19:37:26.525Z,47.73
2018-02-09T19:39:54.363Z,47.70
2018-02-09T19:42:21.935Z,45.30
2018-02-09T19:44:49.552Z,48.10
2018-02-09T19:47:17.140Z,44.57
2018-02-09T19:49:44.683Z,46.53
2018-02-09T19:52:12.235Z,47.80
2018-02-09T19:54:39.901Z,47.00
2018-02-09T19:57:07.439Z,48.37
2018-02-09T19:59:35.050Z,48.83
2018-02-09T20:02:02.627Z,50.10
2018-02-09T20:04:30.169Z,48.00
2018-02-09T20:06:57.772Z,48.73
2018-02-09T20:09:25.391Z,46.47
2018-02-09T20:11:52.931Z,45.30
2018-02-09T20:14:20.582Z,49.00
2018-02-09T20:16:48.125Z,47.60
2018-02-09T20:19:15.707Z,48.30
2018-02-09T20:21:43.317Z,52.20
2018-02-09T20:24:10.995Z,48.30
2018-02-09T20:26:38.834Z,48.27
2018-02-09T20:29:06.381Z,47.63
2018-02-09T20:31:33.982Z,48.10
2018-02-09T20:34:01.585Z,47.67
2018-02-09T20:36:29.232Z,47.80
2018-02-09T20:38:56.864Z,49.20
2018-02-09T20:41:24.429Z,46.83
2018-02-09T20:43:51.983Z,47.30
2018-02-09T20:46:19.610Z,46.27
2018-02-09T20:48:47.141Z,45.60
2018-02-09T20:51:14.967Z,48.53
2018-02-09T20:53:42.832Z,45.70
2018-02-09T20:56:10.390Z,47.20
2018-02-09T20:58:38.260Z,48.80
2018-02-09T21:01:05.917Z,45.00
2018-02-09T21:03:33.477Z,48.73
2018-02-09T21:06:01.066Z,46.93
2018-02-09T21:08:28.633Z,48.27
2018-02-09T21:10:56.463Z,49.40
2018-02-09T21:13:24.327Z,45.63
2018-02-09T21:15:51.957Z,46.23
2018-02-09T21:18:19.767Z,50.80
2018-02-09T21:20:47.306Z,47.53
2018-02-09T21:23:14.929Z,48.70
2018-02-09T21:25:42.576Z,49.13
2018-02-09T21:28:10.141Z,47.47
2018-02-09T21:30:38.091Z,51.83
2018-02-09T21:33:05.635Z,47.53
2018-02-09T21:35:33.215Z,48.13
2018-02-09T21:38:00.734Z,48.67
2018-02-09T21:40:28.268Z,51.47
2018-02-09T21:42:55.843Z,49.37
2018-02-09T21:45:23.385Z,54.00
2018-02-09T21:47:51.107Z,51.10
2018-02-09T21:50:18.662Z,49.13
2018-02-09T21:52:46.209Z,48.23
2018-02-09T21:55:13.864Z,48.50
2018-02-09T21:57:41.418Z,50.37
2018-02-09T22:00:08.952Z,49.13
2018-02-09T22:02:36.540Z,49.50
2018-02-09T22:05:04.086Z,50.30
2018-02-09T22:07:31.654Z,50.73
2018-02-09T22:09:59.323Z,49.20
2018-02-09T22:12:26.943Z,51.00
2018-02-09T22:14:54.542Z,46.00
2018-02-09T22:17:22.415Z,50.17
2018-02-09T22:19:49.960Z,50.37
2018-02-09T22:22:17.573Z,51.50
2018-02-09T22:24:45.100Z,48.97
2018-02-09T22:27:12.631Z,51.07
2018-02-09T22:29:40.228Z,48.70
2018-02-09T22:32:07.769Z,53.93
2018-02-09T22:34:35.343Z,52.40
2018-02-09T22:37:02.875Z,50.50
2018-02-09T22:39:30.432Z,50.20
2018-02-09T22:41:58.251Z,53.70
2018-02-09T22:44:25.799Z,50.87
2018-02-09T22:46:53.346Z,51.60
2018-02-09T22:49:20.878Z,50.43
2018-02-09T22:51:48.451Z,52.60
2018-02-09T22:54:16.026Z,50.47
2018-02-09T22:56:43.601Z,53.03
2018-02-09T22:59:11.186Z,50.63
2018-02-09T23:01:38.710Z,51.63
2018-02-09T23:04:06.254Z,51.87
2018-02-09T23:06:33.836Z,53.10
2018-02-09T23:09:01.834Z,51.57
2018-02-09T23:11:29.413Z,49.33
2018-02-09T23:13:56.980Z,50.63
2018-02-09T23:16:24.529Z,50.97
2018-02-09T23:18:52.078Z,50.33
2018-02-09T23:21:19.585Z,48.13
2018-02-09T23:23:47.111Z,52.23
2018-02-09T23:26:14.670Z,50.40
2018-02-09T23:28:42.374Z,51.10
2018-02-09T23:31:09.967Z,51.93
2018-02-09T23:33:37.527Z,52.97
2018-02-09T23:36:05.106Z,52.50
2018-02-09T23:38:32.971Z,52.87
2018-02-09T23:41:00.510Z,49.23
2018-02-09T23:43:28.037Z,51.40
2018-02-09T23:45:55.590Z,52.60
2018-02-09T23:48:23.141Z,52.37
2018-02-09T23:50:50.699Z,53.17
2018-02-09T23:53:18.252Z,52.97
2018-02-09T23:55:45.781Z,50.87
2018-02-09T23:58:13.383Z,51.73
